Mount Vernon, WA (98274)

6:30 PM PST on February 20, 2017 (GMT -0800)
Finn Settlement | | Change Station
Active Advisory: Small Craft Advisory

Elev 500 ft 48.28 °N, 122.17 °W | Updated 12 seconds ago

Rain
Rain
41.5 °F
Feels Like 42 °F
N
2.2
Wind Variable Wind from ESE

Today
High -- | Low -- °F
--% Chance of Precip.
Yesterday
High -- | Low -- °F
Precip. -- in
Pressure 29.74 in
Visibility 10.0 miles
Clouds Few 2100 ft
Scattered Clouds 2500 ft
Overcast 2900 ft
Windchill 42 °F
Dew Point 41 °F
Humidity 97%
Rainfall 0.23 in
Snow Depth Not available.
7:06 AM 5:39 PM
Waning Crescent, 29% visible
METAR KAWO 210215Z AUTO 14007KT 10SM FEW021 SCT025 OVC029 06/02 A2974 RMK AO1
Pressure 29.74 in
Visibility 10.0 miles
Clouds Few 2100 ft
Scattered Clouds 2500 ft
Overcast 2900 ft
Windchill 42 °F
Dew Point 41 °F
Humidity 97%
Rainfall 0.23 in
Snow Depth Not available.
7:06 AM 5:39 PM
Waning Crescent, 29% visible
METAR KAWO 210215Z AUTO 14007KT 10SM FEW021 SCT025 OVC029 06/02 A2974 RMK AO1

Get Your Daily Forecast Email!

Thanks for signing up!

Be on the lookout for a verification email in your inbox.

You'll start receiving the daily forecast at 8 AM.

×

10-Day Weather Forecast

Almanac

Astronomy

Feb. 20, 2017 Rise Set
Actual Time
Civil Twilight
Nautical Twilight
Astronomical Twilight
Moon
Length of Visible Light
Length of Day
Tomorrow will be .
, % of the Moon is Illuminated

Today's Extremes

State Highs State Lows

Community

WunderPhotos

Upload Photos

1,962,540 photos uploaded!

WunderBlog® & News

Nearby

Air Quality

  Air Quality AQ Index Pollutant
Not available.

Snow Depth

Station Depth Elevation

Earthquake Activity

City Distance Mag. Time & Date
Minimum magnitude displayed is 2.5.

Coastal Water Temperatures

Place Temperature

Stations

Nearby Weather Stations

Station Location Temp. Windchill Dew Point Humidity Wind Precip. Elev Updated Type
                   

Watches & Warnings

Small Craft Advisory
Issued: 2:29 PM PST Feb. 20, 2017 – National Weather Service

... Small Craft Advisory in effect until 9 PM PST this evening...

The National Weather Service in Seattle has issued a Small Craft
Advisory... which is in effect until 9 PM PST this evening.

* Winds... northwest 15 to 25 knots late this afternoon and early
this evening.

* Wind waves... 2 to 4 feet.

Precautionary/preparedness actions...

A Small Craft Advisory means that wind speeds of 21 to 33 knots
are expected to produce hazardous wave conditions to small craft.
Inexperienced mariners... especially those operating smaller
vessels should avoid navigating in these conditions.